sensor_id;sensor_type;location;lat;lon;timestamp;pressure;altitude;pressure_sealevel;temperature;humidity
30819;BME280;17546;42.674;23.284;2023-04-30T00:02:20;94437.38;;;19.75;40.31
30819;BME280;17546;42.674;23.284;2023-04-30T00:04:46;94419.59;;;19.57;40.32
30819;BME280;17546;42.674;23.284;2023-04-30T00:07:11;94445.06;;;19.67;40.42
30819;BME280;17546;42.674;23.284;2023-04-30T00:09:37;94430.25;;;19.58;40.39
30819;BME280;17546;42.674;23.284;2023-04-30T00:12:02;94440.00;;;19.65;40.04
30819;BME280;17546;42.674;23.284;2023-04-30T00:14:27;94437.19;;;19.57;40.43
30819;BME280;17546;42.674;23.284;2023-04-30T00:16:53;94439.81;;;19.63;40.05
30819;BME280;17546;42.674;23.284;2023-04-30T00:19:18;94417.72;;;19.44;39.98
30819;BME280;17546;42.674;23.284;2023-04-30T00:21:46;94433.84;;;19.51;40.04
30819;BME280;17546;42.674;23.284;2023-04-30T00:24:11;94426.53;;;19.33;40.28
30819;BME280;17546;42.674;23.284;2023-04-30T00:26:37;94422.22;;;19.47;40.05
30819;BME280;17546;42.674;23.284;2023-04-30T00:29:02;94403.16;;;19.23;40.61
30819;BME280;17546;42.674;23.284;2023-04-30T00:31:28;94428.06;;;19.34;40.58
30819;BME280;17546;42.674;23.284;2023-04-30T00:33:54;94425.25;;;19.34;40.57
30819;BME280;17546;42.674;23.284;2023-04-30T00:36:19;94435.50;;;19.31;40.87
30819;BME280;17546;42.674;23.284;2023-04-30T00:38:45;94426.38;;;19.08;41.30
30819;BME280;17546;42.674;23.284;2023-04-30T00:41:11;94429.16;;;19.15;40.81
30819;BME280;17546;42.674;23.284;2023-04-30T00:43:36;94419.63;;;19.03;40.96
30819;BME280;17546;42.674;23.284;2023-04-30T00:46:02;94427.28;;;19.18;40.84
30819;BME280;17546;42.674;23.284;2023-04-30T00:48:29;94409.88;;;18.89;40.88
30819;BME280;17546;42.674;23.284;2023-04-30T00:50:55;94428.63;;;18.94;41.49
30819;BME280;17546;42.674;23.284;2023-04-30T00:53:20;94414.56;;;18.78;41.48
30819;BME280;17546;42.674;23.284;2023-04-30T00:55:47;94421.31;;;18.91;41.22
30819;BME280;17546;42.674;23.284;2023-04-30T00:58:12;94432.34;;;18.89;41.48
30819;BME280;17546;42.674;23.284;2023-04-30T01:00:38;94431.75;;;18.83;41.36
30819;BME280;17546;42.674;23.284;2023-04-30T01:03:03;94423.88;;;18.73;41.83
30819;BME280;17546;42.674;23.284;2023-04-30T01:05:29;94412.25;;;18.69;41.57
30819;BME280;17546;42.674;23.284;2023-04-30T01:07:55;94422.94;;;18.63;41.68
30819;BME280;17546;42.674;23.284;2023-04-30T01:10:29;94416.38;;;18.61;41.75
30819;BME280;17546;42.674;23.284;2023-04-30T01:13:10;94425.56;;;18.69;42.14
30819;BME280;17546;42.674;23.284;2023-04-30T01:15:58;94420.50;;;18.67;41.74
30819;BME280;17546;42.674;23.284;2023-04-30T01:18:27;94404.75;;;18.41;42.13
30819;BME280;17546;42.674;23.284;2023-04-30T01:21:00;94412.03;;;18.52;41.90
30819;BME280;17546;42.674;23.284;2023-04-30T01:28:56;94395.78;;;18.50;41.63
30819;BME280;17546;42.674;23.284;2023-04-30T01:31:22;94428.34;;;18.61;41.58
30819;BME280;17546;42.674;23.284;2023-04-30T01:33:48;94425.56;;;18.61;41.62
30819;BME280;17546;42.674;23.284;2023-04-30T01:36:52;94426.44;;;18.56;41.85
30819;BME280;17546;42.674;23.284;2023-04-30T01:39:38;94423.09;;;18.57;41.66
30819;BME280;17546;42.674;23.284;2023-04-30T01:44:57;94429.47;;;18.66;41.58
30819;BME280;17546;42.674;23.284;2023-04-30T01:48:02;94413.72;;;18.47;41.80
30819;BME280;17546;42.674;23.284;2023-04-30T01:50:37;94408.66;;;18.30;41.91
30819;BME280;17546;42.674;23.284;2023-04-30T01:53:06;94418.75;;;18.33;42.09
30819;BME280;17546;42.674;23.284;2023-04-30T01:55:41;94437.63;;;18.41;42.08
30819;BME280;17546;42.674;23.284;2023-04-30T01:58:19;94418.94;;;18.28;41.82
30819;BME280;17546;42.674;23.284;2023-04-30T02:00:46;94426.06;;;18.44;41.76
30819;BME280;17546;42.674;23.284;2023-04-30T02:03:12;94432.41;;;18.45;42.20
30819;BME280;17546;42.674;23.284;2023-04-30T02:05:37;94432.41;;;18.37;42.19
30819;BME280;17546;42.674;23.284;2023-04-30T02:08:03;94421.19;;;18.37;42.14
30819;BME280;17546;42.674;23.284;2023-04-30T02:10:28;94425.31;;;18.44;42.05
30819;BME280;17546;42.674;23.284;2023-04-30T02:12:54;94424.19;;;18.47;42.18
30819;BME280;17546;42.674;23.284;2023-04-30T02:15:20;94430.03;;;18.56;41.70
30819;BME280;17546;42.674;23.284;2023-04-30T02:17:45;94412.44;;;18.48;41.40
30819;BME280;17546;42.674;23.284;2023-04-30T02:20:11;94428.31;;;18.46;41.74
30819;BME280;17546;42.674;23.284;2023-04-30T02:22:38;94402.25;;;18.22;41.85
30819;BME280;17546;42.674;23.284;2023-04-30T02:25:03;94424.19;;;18.47;41.50
30819;BME280;17546;42.674;23.284;2023-04-30T02:27:30;94419.72;;;18.51;41.84
30819;BME280;17546;42.674;23.284;2023-04-30T02:29:56;94422.34;;;18.57;41.42
30819;BME280;17546;42.674;23.284;2023-04-30T02:32:22;94416.91;;;18.51;41.71
30819;BME280;17546;42.674;23.284;2023-04-30T02:34:51;94405.50;;;18.42;41.65
30819;BME280;17546;42.674;23.284;2023-04-30T02:37:16;94416.16;;;18.51;41.48
30819;BME280;17546;42.674;23.284;2023-04-30T02:39:42;94422.72;;;18.53;41.76
30819;BME280;17546;42.674;23.284;2023-04-30T02:42:07;94421.44;;;18.62;41.68
30819;BME280;17546;42.674;23.284;2023-04-30T02:44:33;94421.22;;;18.60;42.10
30819;BME280;17546;42.674;23.284;2023-04-30T02:46:59;94427.97;;;18.65;41.72
30819;BME280;17546;42.674;23.284;2023-04-30T02:49:24;94431.75;;;18.75;41.77
30819;BME280;17546;42.674;23.284;2023-04-30T02:51:51;94415.84;;;18.70;41.35
30819;BME280;17546;42.674;23.284;2023-04-30T02:54:16;94407.94;;;18.61;41.36
30819;BME280;17546;42.674;23.284;2023-04-30T02:56:41;94435.50;;;18.77;41.35
30819;BME280;17546;42.674;23.284;2023-04-30T02:59:08;94415.47;;;18.66;41.63
30819;BME280;17546;42.674;23.284;2023-04-30T03:01:34;94427.41;;;18.66;41.75
30819;BME280;17546;42.674;23.284;2023-04-30T03:03:59;94420.88;;;18.64;41.20
30819;BME280;17546;42.674;23.284;2023-04-30T03:06:25;94429.47;;;18.73;41.08
30819;BME280;17546;42.674;23.284;2023-04-30T03:08:50;94431.75;;;18.75;41.33
30819;BME280;17546;42.674;23.284;2023-04-30T03:11:15;94417.88;;;18.69;41.22
30819;BME280;17546;42.674;23.284;2023-04-30T03:13:42;94429.47;;;18.66;40.99
30819;BME280;17546;42.674;23.284;2023-04-30T03:16:07;94443.91;;;18.77;41.01
30819;BME280;17546;42.674;23.284;2023-04-30T03:18:33;94445.97;;;18.85;40.84
30819;BME280;17546;42.674;23.284;2023-04-30T03:20:58;94442.97;;;18.83;41.05
30819;BME280;17546;42.674;23.284;2023-04-30T03:23:26;94450.31;;;18.86;40.59
30819;BME280;17546;42.674;23.284;2023-04-30T03:25:52;94450.28;;;18.78;41.11
30819;BME280;17546;42.674;23.284;2023-04-30T03:28:18;94456.47;;;18.84;40.88
30819;BME280;17546;42.674;23.284;2023-04-30T03:30:43;94442.25;;;18.82;40.79
30819;BME280;17546;42.674;23.284;2023-04-30T03:33:09;94446.94;;;18.87;40.81
30819;BME280;17546;42.674;23.284;2023-04-30T03:35:34;94450.84;;;18.84;40.77
30819;BME280;17546;42.674;23.284;2023-04-30T03:38:00;94456.47;;;18.84;40.92
30819;BME280;17546;42.674;23.284;2023-04-30T03:40:26;94451.59;;;18.85;41.18
30819;BME280;17546;42.674;23.284;2023-04-30T03:42:51;94461.13;;;18.82;41.41
30819;BME280;17546;42.674;23.284;2023-04-30T03:45:18;94465.81;;;18.87;40.82
30819;BME280;17546;42.674;23.284;2023-04-30T03:47:43;94448.03;;;18.76;40.80
30819;BME280;17546;42.674;23.284;2023-04-30T03:50:09;94471.63;;;18.89;41.35
30819;BME280;17546;42.674;23.284;2023-04-30T03:52:35;94473.13;;;18.90;41.59
30819;BME280;17546;42.674;23.284;2023-04-30T03:55:05;94470.88;;;18.96;41.33
30819;BME280;17546;42.674;23.284;2023-04-30T03:57:31;94469.41;;;18.95;41.21
30819;BME280;17546;42.674;23.284;2023-04-30T03:59:57;94479.13;;;19.02;41.40
30819;BME280;17546;42.674;23.284;2023-04-30T04:02:23;94481.97;;;19.09;40.98
30819;BME280;17546;42.674;23.284;2023-04-30T04:04:50;94477.63;;;19.08;41.20
30819;BME280;17546;42.674;23.284;2023-04-30T04:07:15;94468.28;;;19.06;41.14
30819;BME280;17546;42.674;23.284;2023-04-30T04:09:41;94487.94;;;19.13;41.08
30819;BME280;17546;42.674;23.284;2023-04-30T04:12:06;94477.84;;;19.10;40.55
30819;BME280;17546;42.674;23.284;2023-04-30T04:14:33;94481.94;;;19.17;40.39
30819;BME280;17546;42.674;23.284;2023-04-30T04:17:00;94488.13;;;19.15;40.70
30819;BME280;17546;42.674;23.284;2023-04-30T04:19:26;94468.84;;;19.04;40.44
30819;BME280;17546;42.674;23.284;2023-04-30T04:21:52;94485.53;;;19.25;40.32
30819;BME280;17546;42.674;23.284;2023-04-30T04:24:18;94480.81;;;19.12;40.49
30819;BME280;17546;42.674;23.284;2023-04-30T04:26:43;94468.25;;;18.98;40.35
30819;BME280;17546;42.674;23.284;2023-04-30T04:29:09;94493.00;;;19.23;40.10
30819;BME280;17546;42.674;23.284;2023-04-30T04:31:36;94471.06;;;18.98;40.37
30819;BME280;17546;42.674;23.284;2023-04-30T04:34:04;94495.41;;;19.03;40.02
30819;BME280;17546;42.674;23.284;2023-04-30T04:36:30;94481.19;;;19.01;39.97
30819;BME280;17546;42.674;23.284;2023-04-30T04:38:57;94491.88;;;19.10;40.40
30819;BME280;17546;42.674;23.284;2023-04-30T04:41:29;94496.34;;;19.13;40.32
30819;BME280;17546;42.674;23.284;2023-04-30T04:43:57;94496.16;;;19.11;40.33
30819;BME280;17546;42.674;23.284;2023-04-30T04:46:23;94507.38;;;19.11;40.08
30819;BME280;17546;42.674;23.284;2023-04-30T04:48:49;94495.59;;;19.13;39.89
30819;BME280;17546;42.674;23.284;2023-04-30T04:51:14;94504.03;;;19.13;39.96
30819;BME280;17546;42.674;23.284;2023-04-30T04:53:40;94501.59;;;18.94;40.03
30819;BME280;17546;42.674;23.284;2023-04-30T04:56:05;94504.19;;;18.99;39.88
30819;BME280;17546;42.674;23.284;2023-04-30T04:58:34;94506.06;;;18.97;39.94
30819;BME280;17546;42.674;23.284;2023-04-30T05:00:59;94515.41;;;18.92;39.84
30819;BME280;17546;42.674;23.284;2023-04-30T05:03:27;94508.09;;;18.89;40.28
30819;BME280;17546;42.674;23.284;2023-04-30T05:05:52;94509.22;;;18.86;40.16
30819;BME280;17546;42.674;23.284;2023-04-30T05:08:18;94490.81;;;18.69;40.37
30819;BME280;17546;42.674;23.284;2023-04-30T05:10:43;94505.69;;;18.93;40.19
30819;BME280;17546;42.674;23.284;2023-04-30T05:13:08;94507.75;;;18.92;40.22
30819;BME280;17546;42.674;23.284;2023-04-30T05:15:34;94510.19;;;19.11;40.12
30819;BME280;17546;42.674;23.284;2023-04-30T05:17:59;94513.41;;;19.23;40.03
30819;BME280;17546;42.674;23.284;2023-04-30T05:20:25;94513.56;;;19.02;40.18
30819;BME280;17546;42.674;23.284;2023-04-30T05:22:51;94510.31;;;18.83;40.39
30819;BME280;17546;42.674;23.284;2023-04-30T05:25:16;94504.38;;;19.02;39.57
30819;BME280;17546;42.674;23.284;2023-04-30T05:27:41;94510.97;;;19.12;40.11
30819;BME280;17546;42.674;23.284;2023-04-30T05:30:11;94503.09;;;19.18;39.65
30819;BME280;17546;42.674;23.284;2023-04-30T05:32:36;94513.03;;;19.27;39.64
30819;BME280;17546;42.674;23.284;2023-04-30T05:35:02;94509.66;;;19.20;39.66
30819;BME280;17546;42.674;23.284;2023-04-30T05:37:30;94507.56;;;19.13;39.78
30819;BME280;17546;42.674;23.284;2023-04-30T05:39:55;94510.41;;;19.29;39.47
30819;BME280;17546;42.674;23.284;2023-04-30T05:42:21;94514.53;;;19.43;39.57
30819;BME280;17546;42.674;23.284;2023-04-30T05:44:47;94520.91;;;19.59;39.06
30819;BME280;17546;42.674;23.284;2023-04-30T05:47:14;94522.22;;;19.66;39.22
30819;BME280;17546;42.674;23.284;2023-04-30T05:49:40;94510.41;;;19.59;39.26
30819;BME280;17546;42.674;23.284;2023-04-30T05:52:07;94512.31;;;19.72;38.72
30819;BME280;17546;42.674;23.284;2023-04-30T05:54:32;94514.38;;;19.72;39.10
30819;BME280;17546;42.674;23.284;2023-04-30T05:56:58;94495.97;;;19.55;38.90
30819;BME280;17546;42.674;23.284;2023-04-30T05:59:23;94526.53;;;19.67;39.08
30819;BME280;17546;42.674;23.284;2023-04-30T06:01:50;94517.94;;;19.80;39.10
30819;BME280;17546;42.674;23.284;2023-04-30T06:04:17;94525.38;;;19.93;38.82
30819;BME280;17546;42.674;23.284;2023-04-30T06:06:42;94510.59;;;19.77;38.95
30819;BME280;17546;42.674;23.284;2023-04-30T06:09:08;94522.94;;;19.97;38.75
30819;BME280;17546;42.674;23.284;2023-04-30T06:11:34;94521.84;;;19.85;39.10
30819;BME280;17546;42.674;23.284;2023-04-30T06:14:02;94531.56;;;19.99;38.96
30819;BME280;17546;42.674;23.284;2023-04-30T06:16:27;94537.00;;;20.05;38.70
30819;BME280;17546;42.674;23.284;2023-04-30T06:18:53;94527.81;;;19.96;37.90
30819;BME280;17546;42.674;23.284;2023-04-30T06:21:18;94534.59;;;19.78;38.79
30819;BME280;17546;42.674;23.284;2023-04-30T06:23:44;94531.19;;;20.02;38.22
30819;BME280;17546;42.674;23.284;2023-04-30T06:26:10;94507.41;;;19.96;38.15
30819;BME280;17546;42.674;23.284;2023-04-30T06:28:39;94523.53;;;19.95;38.27
30819;BME280;17546;42.674;23.284;2023-04-30T06:31:04;94536.78;;;20.18;38.26
30819;BME280;17546;42.674;23.284;2023-04-30T06:33:30;94527.97;;;20.14;38.10
30819;BME280;17546;42.674;23.284;2023-04-30T06:35:55;94536.78;;;20.10;38.11
30819;BME280;17546;42.674;23.284;2023-04-30T06:38:21;94533.47;;;19.81;38.57
30819;BME280;17546;42.674;23.284;2023-04-30T06:40:46;94544.88;;;19.98;38.22
30819;BME280;17546;42.674;23.284;2023-04-30T06:43:12;94539.63;;;19.79;38.33
30819;BME280;17546;42.674;23.284;2023-04-30T06:45:38;94533.25;;;19.94;38.18
30819;BME280;17546;42.674;23.284;2023-04-30T06:48:03;94536.59;;;20.16;38.60
30819;BME280;17546;42.674;23.284;2023-04-30T06:50:29;94533.56;;;20.21;38.56
30819;BME280;17546;42.674;23.284;2023-04-30T06:52:54;94543.25;;;20.43;38.29
30819;BME280;17546;42.674;23.284;2023-04-30T06:55:20;94549.53;;;19.57;39.46
30819;BME280;17546;42.674;23.284;2023-04-30T06:57:46;94540.19;;;20.09;38.69
30819;BME280;17546;42.674;23.284;2023-04-30T07:00:11;94531.13;;;20.33;38.34
30819;BME280;17546;42.674;23.284;2023-04-30T07:02:39;94541.31;;;20.69;37.85
30819;BME280;17546;42.674;23.284;2023-04-30T07:05:05;94520.00;;;20.51;37.39
30819;BME280;17546;42.674;23.284;2023-04-30T07:07:33;94539.41;;;20.79;37.49
30819;BME280;17546;42.674;23.284;2023-04-30T07:09:58;94538.72;;;20.63;37.95
30819;BME280;17546;42.674;23.284;2023-04-30T07:12:24;94518.84;;;20.54;38.08
30819;BME280;17546;42.674;23.284;2023-04-30T07:14:49;94529.28;;;20.76;38.02
30819;BME280;17546;42.674;23.284;2023-04-30T07:17:15;94544.16;;;21.02;37.64
30819;BME280;17546;42.674;23.284;2023-04-30T07:19:40;94540.53;;;21.17;37.46
30819;BME280;17546;42.674;23.284;2023-04-30T07:22:07;94545.13;;;21.30;37.37
30819;BME280;17546;42.674;23.284;2023-04-30T07:24:32;94546.34;;;21.19;37.33
30819;BME280;17546;42.674;23.284;2023-04-30T07:26:58;94537.00;;;21.41;36.86
30819;BME280;17546;42.674;23.284;2023-04-30T07:39:47;94544.34;;;21.37;36.83
30819;BME280;17546;42.674;23.284;2023-04-30T07:42:13;94543.06;;;21.63;36.58
30819;BME280;17546;42.674;23.284;2023-04-30T07:52:57;94480.72;;;21.01;36.70
30819;BME280;17546;42.674;23.284;2023-04-30T07:55:22;94510.75;;;21.06;36.66
30819;BME280;17546;42.674;23.284;2023-04-30T07:57:50;94492.88;;;20.78;37.07
30819;BME280;17546;42.674;23.284;2023-04-30T08:00:19;94520.44;;;20.32;37.25
30819;BME280;17546;42.674;23.284;2023-04-30T08:02:53;94499.63;;;20.27;37.23
30819;BME280;17546;42.674;23.284;2023-04-30T08:05:19;94495.91;;;20.17;37.57
30819;BME280;17546;42.674;23.284;2023-04-30T08:07:45;94510.09;;;20.42;37.10
30819;BME280;17546;42.674;23.284;2023-04-30T08:10:13;94544.28;;;20.79;36.98
30819;BME280;17546;42.674;23.284;2023-04-30T08:15:14;94508.06;;;20.27;37.65
30819;BME280;17546;42.674;23.284;2023-04-30T08:17:39;94549.34;;;20.17;37.85
30819;BME280;17546;42.674;23.284;2023-04-30T08:20:10;94511.38;;;20.49;37.40
30819;BME280;17546;42.674;23.284;2023-04-30T08:22:36;94522.28;;;20.93;36.31
30819;BME280;17546;42.674;23.284;2023-04-30T08:25:02;94524.38;;;20.84;36.71
30819;BME280;17546;42.674;23.284;2023-04-30T08:27:32;94516.53;;;20.75;36.35
30819;BME280;17546;42.674;23.284;2023-04-30T08:29:57;94528.75;;;21.36;35.66
30819;BME280;17546;42.674;23.284;2023-04-30T08:32:23;94525.47;;;20.89;35.96
30819;BME280;17546;42.674;23.284;2023-04-30T08:34:53;94517.66;;;20.72;35.85
30819;BME280;17546;42.674;23.284;2023-04-30T08:37:18;94510.13;;;20.82;35.49
30819;BME280;17546;42.674;23.284;2023-04-30T08:39:44;94509.13;;;21.20;35.29
30819;BME280;17546;42.674;23.284;2023-04-30T08:42:12;94488.38;;;21.41;34.29
30819;BME280;17546;42.674;23.284;2023-04-30T08:44:38;94555.94;;;21.91;34.47
30819;BME280;17546;42.674;23.284;2023-04-30T08:47:09;94528.63;;;22.19;33.23
30819;BME280;17546;42.674;23.284;2023-04-30T08:49:37;94497.31;;;21.22;33.61
30819;BME280;17546;42.674;23.284;2023-04-30T08:52:07;94554.66;;;21.67;34.53
30819;BME280;17546;42.674;23.284;2023-04-30T08:54:35;94519.94;;;22.24;33.44
30819;BME280;17546;42.674;23.284;2023-04-30T08:57:01;94522.41;;;22.55;32.25
30819;BME280;17546;42.674;23.284;2023-04-30T08:59:27;94539.25;;;22.80;32.60
30819;BME280;17546;42.674;23.284;2023-04-30T09:01:56;94478.94;;;22.85;31.47
30819;BME280;17546;42.674;23.284;2023-04-30T09:04:22;94514.41;;;23.60;31.96
30819;BME280;17546;42.674;23.284;2023-04-30T09:06:47;94509.16;;;23.93;31.25
30819;BME280;17546;42.674;23.284;2023-04-30T09:09:14;94538.72;;;24.39;30.57
30819;BME280;17546;42.674;23.284;2023-04-30T09:11:41;94480.91;;;24.13;29.96
30819;BME280;17546;42.674;23.284;2023-04-30T09:14:07;94504.03;;;24.68;29.39
30819;BME280;17546;42.674;23.284;2023-04-30T09:16:49;94483.16;;;24.73;28.98
30819;BME280;17546;42.674;23.284;2023-04-30T09:19:24;94463.78;;;24.40;30.03
30819;BME280;17546;42.674;23.284;2023-04-30T09:21:54;94516.94;;;25.10;29.40
30819;BME280;17546;42.674;23.284;2023-04-30T09:24:20;94477.22;;;25.29;28.28
30819;BME280;17546;42.674;23.284;2023-04-30T09:26:46;94479.03;;;25.25;28.38
30819;BME280;17546;42.674;23.284;2023-04-30T09:29:16;94462.22;;;25.48;29.03
30819;BME280;17546;42.674;23.284;2023-04-30T09:31:44;94457.63;;;25.43;27.04
30819;BME280;17546;42.674;23.284;2023-04-30T09:34:11;94506.03;;;26.20;26.47
30819;BME280;17546;42.674;23.284;2023-04-30T09:36:37;94452.72;;;25.96;27.62
30819;BME280;17546;42.674;23.284;2023-04-30T09:39:15;94444.91;;;25.75;27.66
30819;BME280;17546;42.674;23.284;2023-04-30T09:41:43;94471.22;;;25.97;27.67
30819;BME280;17546;42.674;23.284;2023-04-30T09:44:28;94456.97;;;26.07;27.51
30819;BME280;17546;42.674;23.284;2023-04-30T09:47:00;94453.97;;;25.84;27.63
30819;BME280;17546;42.674;23.284;2023-04-30T09:49:29;94491.84;;;25.67;28.21
30819;BME280;17546;42.674;23.284;2023-04-30T09:51:56;94441.25;;;25.63;27.17
30819;BME280;17546;42.674;23.284;2023-04-30T09:54:32;94476.69;;;26.48;27.50
30819;BME280;17546;42.674;23.284;2023-04-30T09:57:02;94489.00;;;26.20;27.09
30819;BME280;17546;42.674;23.284;2023-04-30T10:02:46;94469.56;;;26.04;27.50
30819;BME280;17546;42.674;23.284;2023-04-30T10:05:11;94431.28;;;26.27;27.66
30819;BME280;17546;42.674;23.284;2023-04-30T10:08:09;94469.91;;;26.53;26.77
30819;BME280;17546;42.674;23.284;2023-04-30T10:10:39;94411.81;;;25.47;27.37
30819;BME280;17546;42.674;23.284;2023-04-30T10:13:19;94423.50;;;25.63;27.07
30819;BME280;17546;42.674;23.284;2023-04-30T10:15:50;94414.34;;;24.41;28.77
30819;BME280;17546;42.674;23.284;2023-04-30T10:21:55;94480.63;;;24.58;29.07
30819;BME280;17546;42.674;23.284;2023-04-30T10:24:20;94478.69;;;24.41;29.90
30819;BME280;17546;42.674;23.284;2023-04-30T10:26:47;94440.53;;;23.37;31.18
30819;BME280;17546;42.674;23.284;2023-04-30T10:29:34;94513.16;;;22.89;33.82
30819;BME280;17546;42.674;23.284;2023-04-30T10:32:00;94488.66;;;21.53;36.86
30819;BME280;17546;42.674;23.284;2023-04-30T10:40:25;94524.59;;;21.70;39.32
30819;BME280;17546;42.674;23.284;2023-04-30T10:42:52;94461.03;;;21.51;39.21
30819;BME280;17546;42.674;23.284;2023-04-30T10:48:38;94466.75;;;22.21;40.01
30819;BME280;17546;42.674;23.284;2023-04-30T10:53:41;94497.28;;;22.49;39.28
30819;BME280;17546;42.674;23.284;2023-04-30T10:56:07;94477.00;;;22.61;39.02
30819;BME280;17546;42.674;23.284;2023-04-30T10:58:35;94481.50;;;22.91;37.40
30819;BME280;17546;42.674;23.284;2023-04-30T11:01:14;94493.13;;;23.22;36.25
30819;BME280;17546;42.674;23.284;2023-04-30T11:03:42;94484.13;;;23.34;39.38
30819;BME280;17546;42.674;23.284;2023-04-30T11:06:15;94494.16;;;23.54;38.11
30819;BME280;17546;42.674;23.284;2023-04-30T11:08:45;94492.97;;;23.57;37.91
30819;BME280;17546;42.674;23.284;2023-04-30T11:11:12;94482.28;;;23.65;33.28
30819;BME280;17546;42.674;23.284;2023-04-30T11:13:46;94491.75;;;24.07;34.21
30819;BME280;17546;42.674;23.284;2023-04-30T11:16:14;94481.34;;;24.09;33.90
30819;BME280;17546;42.674;23.284;2023-04-30T11:18:42;94482.41;;;24.24;34.02
30819;BME280;17546;42.674;23.284;2023-04-30T11:21:08;94476.63;;;23.65;31.00
30819;BME280;17546;42.674;23.284;2023-04-30T11:23:34;94485.38;;;24.06;31.47
30819;BME280;17546;42.674;23.284;2023-04-30T11:26:00;94485.81;;;24.22;31.68
30819;BME280;17546;42.674;23.284;2023-04-30T11:28:27;94474.19;;;23.89;31.17
30819;BME280;17546;42.674;23.284;2023-04-30T11:30:57;94473.19;;;23.57;29.48
30819;BME280;17546;42.674;23.284;2023-04-30T11:33:28;94490.09;;;23.94;29.35
30819;BME280;17546;42.674;23.284;2023-04-30T11:35:55;94476.88;;;23.50;29.75
30819;BME280;17546;42.674;23.284;2023-04-30T11:38:30;94474.81;;;23.60;29.63
30819;BME280;17546;42.674;23.284;2023-04-30T11:40:58;94476.72;;;24.04;29.36
30819;BME280;17546;42.674;23.284;2023-04-30T11:43:27;94473.59;;;24.00;29.75
30819;BME280;17546;42.674;23.284;2023-04-30T11:46:07;94485.22;;;24.04;30.72
30819;BME280;17546;42.674;23.284;2023-04-30T11:48:38;94477.38;;;23.66;31.17
30819;BME280;17546;42.674;23.284;2023-04-30T11:51:17;94428.31;;;23.81;31.94
30819;BME280;17546;42.674;23.284;2023-04-30T11:53:45;94474.50;;;23.46;33.07
30819;BME280;17546;42.674;23.284;2023-04-30T11:56:11;94411.56;;;23.46;33.12
30819;BME280;17546;42.674;23.284;2023-04-30T11:58:38;94406.56;;;23.73;32.76
30819;BME280;17546;42.674;23.284;2023-04-30T12:01:07;94408.53;;;24.20;34.69
30819;BME280;17546;42.674;23.284;2023-04-30T12:03:44;94425.88;;;24.84;31.43
30819;BME280;17546;42.674;23.284;2023-04-30T12:06:20;94413.13;;;25.14;32.32
30819;BME280;17546;42.674;23.284;2023-04-30T12:08:47;94418.34;;;25.08;31.68
30819;BME280;17546;42.674;23.284;2023-04-30T12:11:22;94429.16;;;24.90;32.35
30819;BME280;17546;42.674;23.284;2023-04-30T12:13:59;94451.31;;;25.04;31.97
30819;BME280;17546;42.674;23.284;2023-04-30T12:16:27;94458.00;;;25.08;31.86
30819;BME280;17546;42.674;23.284;2023-04-30T12:18:53;94446.72;;;24.89;32.39
30819;BME280;17546;42.674;23.284;2023-04-30T12:21:21;94478.53;;;24.29;32.89
30819;BME280;17546;42.674;23.284;2023-04-30T12:23:47;94443.09;;;24.08;32.93
30819;BME280;17546;42.674;23.284;2023-04-30T12:26:17;94497.22;;;23.39;33.71
30819;BME280;17546;42.674;23.284;2023-04-30T12:28:47;94494.88;;;23.55;33.23
30819;BME280;17546;42.674;23.284;2023-04-30T12:31:16;94448.25;;;22.72;33.91
30819;BME280;17546;42.674;23.284;2023-04-30T12:33:42;94498.66;;;23.30;34.31
30819;BME280;17546;42.674;23.284;2023-04-30T12:36:12;94448.91;;;22.80;35.05
30819;BME280;17546;42.674;23.284;2023-04-30T12:38:41;94436.88;;;23.07;34.57
30819;BME280;17546;42.674;23.284;2023-04-30T12:41:11;94460.38;;;23.56;35.17
30819;BME280;17546;42.674;23.284;2023-04-30T12:43:41;94444.19;;;22.93;34.76
30819;BME280;17546;42.674;23.284;2023-04-30T12:46:07;94463.81;;;23.18;34.71
30819;BME280;17546;42.674;23.284;2023-04-30T12:48:42;94466.84;;;23.29;34.88
30819;BME280;17546;42.674;23.284;2023-04-30T12:51:18;94471.22;;;23.50;35.27
30819;BME280;17546;42.674;23.284;2023-04-30T12:53:45;94479.84;;;23.42;35.67
30819;BME280;17546;42.674;23.284;2023-04-30T12:56:16;94448.84;;;23.25;36.70
30819;BME280;17546;42.674;23.284;2023-04-30T12:58:46;94456.66;;;23.63;36.09
30819;BME280;17546;42.674;23.284;2023-04-30T13:01:19;94450.78;;;23.32;35.33
30819;BME280;17546;42.674;23.284;2023-04-30T13:03:47;94509.84;;;23.75;35.37
30819;BME280;17546;42.674;23.284;2023-04-30T13:06:12;94475.56;;;23.61;34.88
30819;BME280;17546;42.674;23.284;2023-04-30T13:08:38;94432.44;;;23.14;35.25
30819;BME280;17546;42.674;23.284;2023-04-30T13:11:05;94457.44;;;23.73;34.69
30819;BME280;17546;42.674;23.284;2023-04-30T13:13:31;94491.19;;;24.18;34.69
30819;BME280;17546;42.674;23.284;2023-04-30T13:15:59;94476.28;;;24.08;35.07
30819;BME280;17546;42.674;23.284;2023-04-30T13:18:25;94412.94;;;23.74;34.91
30819;BME280;17546;42.674;23.284;2023-04-30T13:20:51;94414.88;;;23.71;35.52
30819;BME280;17546;42.674;23.284;2023-04-30T13:23:17;94399.59;;;23.18;35.09
30819;BME280;17546;42.674;23.284;2023-04-30T13:25:42;94425.81;;;23.38;34.86
30819;BME280;17546;42.674;23.284;2023-04-30T13:28:08;94434.38;;;23.67;35.22
30819;BME280;17546;42.674;23.284;2023-04-30T13:30:34;94420.59;;;22.98;35.16
30819;BME280;17546;42.674;23.284;2023-04-30T13:33:00;94450.78;;;23.32;35.18
30819;BME280;17546;42.674;23.284;2023-04-30T13:35:27;94426.25;;;23.35;35.13
30819;BME280;17546;42.674;23.284;2023-04-30T13:37:53;94390.50;;;22.83;35.41
30819;BME280;17546;42.674;23.284;2023-04-30T13:40:19;94404.44;;;23.08;35.02
30819;BME280;17546;42.674;23.284;2023-04-30T13:42:46;94390.72;;;23.31;34.77